Time;durP1;ratioP1;P1;durP2;ratioP2;P2;SDS_P1;SDS_P2;PMS_P1;PMS_P2;Temp;Humidity;BMP_temperature;BMP_pressure;BME280_temperature;BME280_humidity;BME280_pressure;Samples;Min_cycle;Max_cycle;Signal;HPM_P1;HPM_P2
2021/04/30 00:01:57;;;;;;;15.30;11.73;;;;;;;;;;5031383;28;20197;-72
2021/04/30 00:05:01;;;;;;;14.77;11.77;;;;;;;;;;5013703;28;20190;-72
2021/04/30 00:08:06;;;;;;;13.27;10.60;;;;;;;;;;5029201;28;20201;-72
2021/04/30 00:11:10;;;;;;;15.87;11.73;;;;;;;;;;5032796;28;20192;-72
2021/04/30 00:14:14;;;;;;;14.77;11.23;;;;;;;;;;5032434;28;20532;-72
2021/04/30 00:17:18;;;;;;;15.57;10.93;;;;;;;;;;5021082;28;20212;-72
2021/04/30 00:20:22;;;;;;;12.60;10.80;;;;;;;;;;5032632;28;20196;-72
2021/04/30 00:23:27;;;;;;;12.60;10.73;;;;;;;;;;5033649;28;20205;-73
2021/04/30 00:26:36;;;;;;;14.90;11.03;;;;;;;;;;5032706;28;20217;-72
2021/04/30 00:29:40;;;;;;;17.97;11.60;;;;;;;;;;5027241;28;20193;-72
2021/04/30 00:32:52;;;;;;;17.83;12.20;;;;;;;;;;5009779;28;20212;-72
2021/04/30 00:35:57;;;;;;;17.13;11.93;;;;;;;;;;5013364;28;20225;-73
2021/04/30 00:39:02;;;;;;;15.00;11.93;;;;;;;;;;5022145;28;20659;-72
2021/04/30 00:42:07;;;;;;;17.57;12.57;;;;;;;;;;5030108;28;20204;-72
2021/04/30 00:45:16;;;;;;;18.70;12.87;;;;;;;;;;5020954;28;20675;-72
2021/04/30 00:48:21;;;;;;;16.03;11.90;;;;;;;;;;5033498;28;20177;-73
2021/04/30 00:51:26;;;;;;;13.83;12.27;;;;;;;;;;5021594;28;20181;-73
2021/04/30 00:54:29;;;;;;;16.87;11.93;;;;;;;;;;5012454;28;20189;-72
2021/04/30 00:57:39;;;;;;;15.13;10.97;;;;;;;;;;5013290;28;20208;-72
2021/04/30 01:00:43;;;;;;;15.53;11.80;;;;;;;;;;5013641;28;20182;-73
2021/04/30 01:03:48;;;;;;;18.13;12.70;;;;;;;;;;5020102;28;20212;-72
2021/04/30 01:06:52;;;;;;;15.67;11.73;;;;;;;;;;5021002;28;20217;-73
2021/04/30 01:09:57;;;;;;;15.23;12.17;;;;;;;;;;5029909;28;20192;-72
2021/04/30 01:13:02;;;;;;;14.77;12.30;;;;;;;;;;5030615;28;20177;-72
2021/04/30 01:16:06;;;;;;;14.83;12.07;;;;;;;;;;5020729;28;20220;-73
2021/04/30 01:19:19;;;;;;;16.03;12.40;;;;;;;;;;5032336;28;20200;-73
2021/04/30 01:22:38;;;;;;;14.47;12.40;;;;;;;;;;5032141;28;20181;-73
2021/04/30 01:25:42;;;;;;;16.10;12.13;;;;;;;;;;5022860;28;20219;-73
2021/04/30 01:28:47;;;;;;;18.47;13.43;;;;;;;;;;5036540;28;20180;-73
2021/04/30 01:31:51;;;;;;;17.43;12.97;;;;;;;;;;5034480;28;20267;-73
2021/04/30 01:34:55;;;;;;;16.00;12.90;;;;;;;;;;5015094;28;20172;-73
2021/04/30 01:38:02;;;;;;;18.03;13.10;;;;;;;;;;5034534;28;20193;-73
2021/04/30 01:41:06;;;;;;;18.97;13.83;;;;;;;;;;5036628;28;20180;-73
2021/04/30 01:44:13;;;;;;;18.27;14.10;;;;;;;;;;5004649;28;20707;-73
2021/04/30 01:47:17;;;;;;;15.40;13.10;;;;;;;;;;5016430;28;20216;-73
2021/04/30 01:50:21;;;;;;;19.47;13.67;;;;;;;;;;5016429;28;20173;-73
2021/04/30 01:53:34;;;;;;;17.43;13.57;;;;;;;;;;5017425;28;20537;-73
2021/04/30 01:56:38;;;;;;;18.37;13.80;;;;;;;;;;5016244;28;20217;-73
2021/04/30 01:59:42;;;;;;;19.37;14.87;;;;;;;;;;5016211;28;20173;-73
2021/04/30 02:02:49;;;;;;;18.40;13.90;;;;;;;;;;5028417;28;20651;-73
2021/04/30 02:05:54;;;;;;;17.87;14.00;;;;;;;;;;5035765;28;20705;-73
2021/04/30 02:08:58;;;;;;;20.47;14.93;;;;;;;;;;5035680;28;20181;-73
2021/04/30 02:12:03;;;;;;;18.83;13.57;;;;;;;;;;5021858;28;20185;-73
2021/04/30 02:15:09;;;;;;;16.50;13.27;;;;;;;;;;5023616;28;20620;-73
2021/04/30 02:18:15;;;;;;;19.23;14.33;;;;;;;;;;5035914;28;20180;-73
2021/04/30 02:21:19;;;;;;;18.20;13.27;;;;;;;;;;5023332;28;20184;-73
2021/04/30 02:24:23;;;;;;;18.77;14.27;;;;;;;;;;5015499;28;20205;-73
2021/04/30 02:27:27;;;;;;;17.13;13.30;;;;;;;;;;5015765;28;20221;-73
2021/04/30 02:30:33;;;;;;;17.07;13.37;;;;;;;;;;5015645;28;20542;-73
2021/04/30 02:33:37;;;;;;;18.13;13.00;;;;;;;;;;5034338;28;20189;-73
2021/04/30 02:36:41;;;;;;;16.03;12.60;;;;;;;;;;5014198;28;20221;-73
2021/04/30 02:39:46;;;;;;;17.17;14.00;;;;;;;;;;5014435;28;20185;-73
2021/04/30 02:42:53;;;;;;;19.47;15.33;;;;;;;;;;5027607;28;20189;-73
2021/04/30 02:45:59;;;;;;;18.97;14.33;;;;;;;;;;5034856;28;20216;-73
2021/04/30 02:49:05;;;;;;;19.13;13.93;;;;;;;;;;5035067;28;20181;-73
2021/04/30 02:52:11;;;;;;;18.13;14.07;;;;;;;;;;5026936;28;20209;-73
2021/04/30 02:55:20;;;;;;;17.30;13.10;;;;;;;;;;5022603;28;20197;-73
2021/04/30 02:58:25;;;;;;;16.97;13.33;;;;;;;;;;5034941;28;20521;-73
2021/04/30 03:01:30;;;;;;;17.00;12.27;;;;;;;;;;5034154;28;20667;-73
2021/04/30 03:04:34;;;;;;;19.17;11.90;;;;;;;;;;5028109;28;20213;-73
2021/04/30 03:07:38;;;;;;;15.63;11.73;;;;;;;;;;5026014;28;20675;-73
2021/04/30 03:10:43;;;;;;;14.07;11.13;;;;;;;;;;5034907;28;20173;-73
2021/04/30 03:13:47;;;;;;;16.60;12.17;;;;;;;;;;5014597;28;20182;-73
2021/04/30 03:16:52;;;;;;;13.37;11.03;;;;;;;;;;5014798;28;20635;-73
2021/04/30 03:19:56;;;;;;;14.80;11.47;;;;;;;;;;5016249;28;20201;-73
2021/04/30 03:23:00;;;;;;;13.93;10.87;;;;;;;;;;5033467;28;20204;-73
2021/04/30 03:26:04;;;;;;;13.50;10.27;;;;;;;;;;5033439;28;20208;-73
2021/04/30 03:29:09;;;;;;;13.90;11.43;;;;;;;;;;5014493;28;20517;-73
2021/04/30 03:32:13;;;;;;;12.50;10.60;;;;;;;;;;5028950;28;20544;-73
2021/04/30 03:35:18;;;;;;;14.70;10.73;;;;;;;;;;5025326;23;20229;-77
2021/04/30 03:38:23;;;;;;;11.77;10.00;;;;;;;;;;4974190;28;20206;-77
2021/04/30 03:41:27;;;;;;;12.80;10.20;;;;;;;;;;4977787;28;20205;-77
2021/04/30 03:44:31;;;;;;;12.63;10.00;;;;;;;;;;4983045;28;20214;-78
2021/04/30 03:47:35;;;;;;;13.90;9.80;;;;;;;;;;5005737;28;20218;-77
2021/04/30 03:50:40;;;;;;;11.00;9.80;;;;;;;;;;4982865;28;20186;-76
2021/04/30 03:53:44;;;;;;;13.73;9.87;;;;;;;;;;4994564;28;20616;-76
2021/04/30 03:56:48;;;;;;;10.53;9.20;;;;;;;;;;4975456;28;20222;-76
2021/04/30 03:59:53;;;;;;;12.97;10.27;;;;;;;;;;4974771;28;20202;-76
2021/04/30 04:02:57;;;;;;;12.30;9.67;;;;;;;;;;4975285;28;20183;-76
2021/04/30 04:06:01;;;;;;;11.40;9.47;;;;;;;;;;4999303;28;20712;-76
2021/04/30 04:09:06;;;;;;;13.93;10.70;;;;;;;;;;5008146;28;20190;-76
2021/04/30 04:12:10;;;;;;;14.07;10.63;;;;;;;;;;5012951;28;20193;-77
2021/04/30 04:15:19;;;;;;;14.90;9.93;;;;;;;;;;5006626;28;20198;-77
2021/04/30 04:18:25;;;;;;;13.77;10.27;;;;;;;;;;4995124;28;20213;-76
2021/04/30 04:21:29;;;;;;;13.33;10.47;;;;;;;;;;4994458;28;20182;-76
2021/04/30 04:24:33;;;;;;;13.70;10.20;;;;;;;;;;5001199;28;20229;-76
2021/04/30 04:27:38;;;;;;;13.80;10.30;;;;;;;;;;4974320;28;20222;-76
2021/04/30 04:30:42;;;;;;;12.87;9.93;;;;;;;;;;4993875;28;20198;-77
2021/04/30 04:33:47;;;;;;;16.30;10.27;;;;;;;;;;5001303;28;20182;-77
2021/04/30 04:36:51;;;;;;;12.60;9.97;;;;;;;;;;5012513;28;20217;-76
2021/04/30 04:39:55;;;;;;;14.80;10.30;;;;;;;;;;5001201;28;20532;-76
2021/04/30 04:42:59;;;;;;;13.63;10.23;;;;;;;;;;5001210;28;20186;-76
2021/04/30 04:46:03;;;;;;;15.97;11.50;;;;;;;;;;5013662;28;20237;-77
2021/04/30 04:49:07;;;;;;;12.77;10.57;;;;;;;;;;5013458;28;20181;-77
2021/04/30 04:52:12;;;;;;;14.00;10.33;;;;;;;;;;5001352;28;20177;-77
2021/04/30 04:55:17;;;;;;;12.90;10.97;;;;;;;;;;5013397;28;20177;-76
2021/04/30 04:58:21;;;;;;;11.93;10.03;;;;;;;;;;5013401;28;20185;-76
2021/04/30 05:01:26;;;;;;;12.03;10.17;;;;;;;;;;5004562;28;20189;-76
2021/04/30 05:04:30;;;;;;;10.30;8.97;;;;;;;;;;5015590;28;20209;-76
2021/04/30 05:07:34;;;;;;;11.93;8.17;;;;;;;;;;4997872;28;20221;-76
2021/04/30 05:10:38;;;;;;;22.20;17.37;;;;;;;;;;4978154;28;20186;-76
2021/04/30 05:13:43;;;;;;;10.87;9.17;;;;;;;;;;4984105;28;20206;-76
2021/04/30 05:16:47;;;;;;;10.07;8.47;;;;;;;;;;4996454;28;20573;-76
2021/04/30 05:19:51;;;;;;;9.17;8.17;;;;;;;;;;5005282;28;20205;-76
2021/04/30 05:22:55;;;;;;;10.93;8.97;;;;;;;;;;4983261;28;20178;-77
2021/04/30 05:25:59;;;;;;;9.60;8.00;;;;;;;;;;5004402;28;20221;-76
2021/04/30 05:29:04;;;;;;;10.27;8.23;;;;;;;;;;5015814;28;20186;-77
2021/04/30 05:32:10;;;;;;;11.87;8.17;;;;;;;;;;4996721;28;20198;-76
2021/04/30 05:35:14;;;;;;;12.17;9.10;;;;;;;;;;4990833;28;20202;-78
2021/04/30 05:38:18;;;;;;;10.00;8.43;;;;;;;;;;4991058;28;20181;-76
2021/04/30 05:41:23;;;;;;;10.17;8.57;;;;;;;;;;4977613;28;20183;-76
2021/04/30 05:44:27;;;;;;;10.73;8.40;;;;;;;;;;5019063;28;20649;-77
2021/04/30 05:47:31;;;;;;;13.97;8.80;;;;;;;;;;4981892;28;20225;-78
2021/04/30 05:50:35;;;;;;;11.60;8.03;;;;;;;;;;4984348;28;20541;-77
2021/04/30 05:53:39;;;;;;;11.20;8.77;;;;;;;;;;5000254;28;20181;-77
2021/04/30 05:56:44;;;;;;;12.37;9.47;;;;;;;;;;5012020;28;20221;-78
2021/04/30 05:59:48;;;;;;;14.97;9.13;;;;;;;;;;4995758;28;20526;-78
2021/04/30 06:02:52;;;;;;;12.83;9.37;;;;;;;;;;4992523;28;20190;-77
2021/04/30 06:05:57;;;;;;;12.43;10.23;;;;;;;;;;4992403;28;20226;-77
2021/04/30 06:09:01;;;;;;;12.67;9.47;;;;;;;;;;4992598;28;20229;-78
2021/04/30 06:12:05;;;;;;;14.00;9.97;;;;;;;;;;5003549;28;20597;-77
2021/04/30 06:15:10;;;;;;;12.57;9.23;;;;;;;;;;4993412;28;20201;-77
2021/04/30 06:18:15;;;;;;;12.00;9.57;;;;;;;;;;4994245;28;20637;-78
2021/04/30 06:21:19;;;;;;;11.73;9.23;;;;;;;;;;5008170;28;20182;-77
2021/04/30 06:24:24;;;;;;;11.00;9.07;;;;;;;;;;5007502;28;20193;-78
2021/04/30 06:27:28;;;;;;;12.83;8.83;;;;;;;;;;5002694;28;20220;-78
2021/04/30 06:30:32;;;;;;;13.73;7.87;;;;;;;;;;4962764;28;20183;-77
2021/04/30 06:33:36;;;;;;;13.53;8.90;;;;;;;;;;4974332;28;20530;-78
2021/04/30 06:36:40;;;;;;;13.57;8.17;;;;;;;;;;4974416;28;20215;-78
2021/04/30 06:39:45;;;;;;;9.67;8.27;;;;;;;;;;4985935;28;20189;-77
2021/04/30 06:42:49;;;;;;;8.50;7.57;;;;;;;;;;4996803;28;20190;-76
2021/04/30 06:45:53;;;;;;;10.87;8.10;;;;;;;;;;4980251;28;20228;-77
2021/04/30 06:48:57;;;;;;;8.87;7.97;;;;;;;;;;5002457;28;20189;-77
2021/04/30 06:52:02;;;;;;;10.40;8.67;;;;;;;;;;4983413;28;20210;-77
2021/04/30 06:55:07;;;;;;;13.47;8.00;;;;;;;;;;5010730;28;20193;-77
2021/04/30 06:58:11;;;;;;;11.77;8.67;;;;;;;;;;5015339;28;20178;-76
2021/04/30 07:01:16;;;;;;;12.37;8.00;;;;;;;;;;5006158;28;20193;-76
2021/04/30 07:04:20;;;;;;;13.03;8.60;;;;;;;;;;5001062;28;20189;-76
2021/04/30 07:07:24;;;;;;;10.97;7.20;;;;;;;;;;4976076;28;20704;-76
2021/04/30 07:10:33;;;;;;;9.77;7.60;;;;;;;;;;5010784;28;20194;-76
2021/04/30 07:13:37;;;;;;;10.40;7.60;;;;;;;;;;4998820;28;20214;-75
2021/04/30 07:16:41;;;;;;;10.97;8.30;;;;;;;;;;5006724;28;20217;-77
2021/04/30 07:19:46;;;;;;;8.73;7.23;;;;;;;;;;4996327;28;20697;-75
2021/04/30 07:22:50;;;;;;;9.13;6.80;;;;;;;;;;4971889;28;20206;-76
2021/04/30 07:25:54;;;;;;;10.33;6.63;;;;;;;;;;5000292;28;20575;-76
2021/04/30 07:28:59;;;;;;;8.73;7.27;;;;;;;;;;5014320;28;20178;-77
2021/04/30 07:32:03;;;;;;;11.33;7.33;;;;;;;;;;4999873;28;20528;-76
2021/04/30 07:35:08;;;;;;;7.90;7.10;;;;;;;;;;5004703;28;20197;-77
2021/04/30 07:38:12;;;;;;;11.10;7.40;;;;;;;;;;4975182;28;20187;-76
2021/04/30 07:41:16;;;;;;;12.90;7.57;;;;;;;;;;4985525;28;20179;-76
2021/04/30 07:44:20;;;;;;;13.93;7.27;;;;;;;;;;4977096;28;20183;-76
2021/04/30 07:47:34;;;;;;;9.47;7.37;;;;;;;;;;5002783;28;20213;-76
2021/04/30 07:50:39;;;;;;;20.97;8.27;;;;;;;;;;4996451;28;20202;-76
2021/04/30 07:53:43;;;;;;;9.50;7.30;;;;;;;;;;4982654;28;20189;-76
2021/04/30 07:56:49;;;;;;;8.47;7.57;;;;;;;;;;4971403;28;20217;-76
2021/04/30 07:59:53;;;;;;;7.60;6.80;;;;;;;;;;4979146;28;20186;-76
2021/04/30 08:02:58;;;;;;;8.47;7.57;;;;;;;;;;4994471;28;20618;-75
2021/04/30 08:06:02;;;;;;;9.20;7.50;;;;;;;;;;4994226;28;20253;-75
2021/04/30 08:09:07;;;;;;;9.93;6.73;;;;;;;;;;5007313;28;20194;-76
2021/04/30 08:12:10;;;;;;;15.60;8.57;;;;;;;;;;5003150;28;20201;-76
2021/04/30 08:15:16;;;;;;;11.13;6.67;;;;;;;;;;5014042;28;20182;-76
2021/04/30 08:18:20;;;;;;;9.80;7.87;;;;;;;;;;4974012;28;20186;-76
2021/04/30 08:21:24;;;;;;;8.70;7.37;;;;;;;;;;5010864;28;20205;-76
2021/04/30 08:24:28;;;;;;;8.23;7.23;;;;;;;;;;4994152;28;20174;-75
2021/04/30 08:27:33;;;;;;;10.83;7.00;;;;;;;;;;4995000;28;20221;-75
2021/04/30 08:30:38;;;;;;;8.47;7.43;;;;;;;;;;4994202;28;20182;-75
2021/04/30 08:33:42;;;;;;;8.17;7.20;;;;;;;;;;4993556;28;20178;-76
2021/04/30 08:36:46;;;;;;;11.87;7.60;;;;;;;;;;4993214;28;20218;-76
2021/04/30 08:39:51;;;;;;;10.37;7.60;;;;;;;;;;4973684;28;20190;-75
2021/04/30 08:42:56;;;;;;;9.90;7.77;;;;;;;;;;4993370;28;20198;-76
2021/04/30 08:46:00;;;;;;;11.00;7.87;;;;;;;;;;4984523;28;20701;-76
2021/04/30 08:49:06;;;;;;;10.40;7.93;;;;;;;;;;4993750;28;20190;-75
2021/04/30 08:52:12;;;;;;;8.17;6.27;;;;;;;;;;5003424;28;20538;-76
2021/04/30 08:55:17;;;;;;;8.27;6.87;;;;;;;;;;4984323;28;20182;-75
2021/04/30 08:58:30;;;;;;;8.23;6.73;;;;;;;;;;5002200;28;20193;-76
2021/04/30 09:01:35;;;;;;;8.97;7.07;;;;;;;;;;4994666;28;20190;-76
2021/04/30 09:04:41;;;;;;;11.03;6.63;;;;;;;;;;4993821;28;20649;-76
2021/04/30 09:07:46;;;;;;;7.97;7.17;;;;;;;;;;4996107;28;20187;-76
2021/04/30 09:10:50;;;;;;;11.20;7.67;;;;;;;;;;4993465;28;20198;-76
2021/04/30 09:14:19;;;;;;;9.77;6.53;;;;;;;;;;4981901;28;20625;-76
2021/04/30 09:17:24;;;;;;;7.87;6.60;;;;;;;;;;4993092;28;20221;-76
2021/04/30 09:20:38;;;;;;;10.37;6.40;;;;;;;;;;4981709;28;20190;-76
2021/04/30 09:23:45;;;;;;;8.80;6.57;;;;;;;;;;4981558;28;20183;-76
2021/04/30 09:26:50;;;;;;;10.10;7.63;;;;;;;;;;4981257;28;20221;-76
2021/04/30 09:30:12;;;;;;;8.87;7.33;;;;;;;;;;4981622;28;20186;-76
2021/04/30 09:33:19;;;;;;;10.33;7.07;;;;;;;;;;4993743;28;20186;-76
2021/04/30 09:36:23;;;;;;;9.20;8.03;;;;;;;;;;5025620;23;20240;-82
2021/04/30 09:39:28;;;;;;;9.33;8.20;;;;;;;;;;5001149;28;20553;-82
2021/04/30 09:42:36;;;;;;;10.10;8.40;;;;;;;;;;5009929;28;20208;-82
2021/04/30 09:45:41;;;;;;;8.10;7.27;;;;;;;;;;5010572;28;20208;-82
2021/04/30 09:49:05;;;;;;;9.20;7.60;;;;;;;;;;5002611;28;20185;-83
2021/04/30 09:52:10;;;;;;;9.53;7.50;;;;;;;;;;5024438;28;20181;-83
2021/04/30 09:55:14;;;;;;;13.77;7.00;;;;;;;;;;5001111;28;20698;-82
2021/04/30 09:58:25;;;;;;;12.20;7.43;;;;;;;;;;4997478;28;20188;-83
2021/04/30 10:01:29;;;;;;;9.00;8.10;;;;;;;;;;5002148;28;20497;-82
2021/04/30 10:04:35;;;;;;;8.80;7.20;;;;;;;;;;5036422;28;20624;-82
2021/04/30 10:07:41;;;;;;;9.23;6.70;;;;;;;;;;5012970;28;20208;-83
2021/04/30 10:10:45;;;;;;;8.10;7.07;;;;;;;;;;5012485;28;20204;-82
2021/04/30 10:13:49;;;;;;;9.43;7.13;;;;;;;;;;5021731;28;20201;-82
2021/04/30 10:16:54;;;;;;;10.63;7.53;;;;;;;;;;5012740;28;20177;-83
2021/04/30 10:19:59;;;;;;;8.97;6.60;;;;;;;;;;5001647;28;20176;-84
2021/04/30 10:23:20;;;;;;;7.63;6.60;;;;;;;;;;5004349;28;20200;-82
2021/04/30 10:26:25;;;;;;;8.03;7.20;;;;;;;;;;5011924;28;20225;-85
2021/04/30 10:29:32;;;;;;;8.40;6.20;;;;;;;;;;5024162;28;20177;-85
2021/04/30 10:32:53;;;;;;;6.30;5.70;;;;;;;;;;5017084;28;20651;-84
2021/04/30 10:36:16;;;;;;;6.47;5.77;;;;;;;;;;5000693;28;20224;-84
2021/04/30 10:39:32;;;;;;;8.23;5.33;;;;;;;;;;5012084;28;20181;-85
2021/04/30 10:42:46;;;;;;;9.30;6.47;;;;;;;;;;5011916;28;20189;-84
2021/04/30 10:46:14;;;;;;;7.60;6.40;;;;;;;;;;5011808;28;20218;-85
2021/04/30 10:49:22;;;;;;;9.57;7.37;;;;;;;;;;5008960;28;20195;-84
2021/04/30 10:52:26;;;;;;;9.27;7.47;;;;;;;;;;4997965;28;20182;-85
2021/04/30 10:55:39;;;;;;;7.83;6.83;;;;;;;;;;5003139;28;20226;-84
2021/04/30 10:58:43;;;;;;;7.83;6.77;;;;;;;;;;5002642;28;20534;-84
2021/04/30 11:01:49;;;;;;;9.33;7.43;;;;;;;;;;5003165;28;20182;-84
2021/04/30 11:05:06;;;;;;;8.03;6.87;;;;;;;;;;5002892;28;20217;-85
2021/04/30 11:08:10;;;;;;;7.33;6.63;;;;;;;;;;5014746;28;20213;-84
2021/04/30 11:11:15;;;;;;;7.70;6.40;;;;;;;;;;4992049;28;20205;-83
2021/04/30 11:14:32;;;;;;;9.07;7.90;;;;;;;;;;5014208;28;20182;-84
2021/04/30 11:17:47;;;;;;;10.93;6.70;;;;;;;;;;5002835;28;20174;-84
2021/04/30 11:21:06;;;;;;;6.23;5.53;;;;;;;;;;5003517;28;20183;-83
2021/04/30 11:24:29;;;;;;;7.97;6.27;;;;;;;;;;5003316;28;20195;-85
2021/04/30 11:27:34;;;;;;;7.67;6.40;;;;;;;;;;5003500;28;20668;-85
2021/04/30 11:30:38;;;;;;;16.40;6.87;;;;;;;;;;5002991;28;20183;-83
2021/04/30 11:34:04;;;;;;;7.37;6.60;;;;;;;;;;5003924;28;20189;-85
2021/04/30 11:37:09;;;;;;;7.90;6.93;;;;;;;;;;5002883;28;20540;-85
2021/04/30 11:40:13;;;;;;;9.17;7.10;;;;;;;;;;5013931;28;20192;-84
2021/04/30 11:43:19;;;;;;;12.10;8.03;;;;;;;;;;5003135;28;20182;-84
2021/04/30 11:46:23;;;;;;;10.83;7.80;;;;;;;;;;5003866;28;20223;-84
2021/04/30 11:49:29;;;;;;;10.23;8.03;;;;;;;;;;4991776;28;20517;-83
2021/04/30 11:52:36;;;;;;;9.50;8.30;;;;;;;;;;4991786;28;20183;-84
2021/04/30 11:55:41;;;;;;;8.57;7.70;;;;;;;;;;5002717;28;20214;-84
2021/04/30 11:58:47;;;;;;;11.30;7.40;;;;;;;;;;5014203;28;20189;-84
2021/04/30 12:01:54;;;;;;;9.90;7.77;;;;;;;;;;5002447;28;20182;-84
2021/04/30 12:04:58;;;;;;;8.13;7.33;;;;;;;;;;4991819;28;20213;-83
2021/04/30 12:08:13;;;;;;;10.47;7.20;;;;;;;;;;5003645;28;20221;-84
2021/04/30 12:11:35;;;;;;;7.83;7.03;;;;;;;;;;5013894;28;20182;-84
2021/04/30 12:15:11;;;;;;;7.37;6.67;;;;;;;;;;5027072;28;20639;-85
2021/04/30 12:18:15;;;;;;;8.17;7.00;;;;;;;;;;5022023;28;20201;-85
2021/04/30 12:21:31;;;;;;;9.80;7.00;;;;;;;;;;5036800;28;20185;-85
2021/04/30 12:24:35;;;;;;;9.87;6.17;;;;;;;;;;4993819;28;20193;-85
2021/04/30 12:27:39;;;;;;;12.73;5.90;;;;;;;;;;4982605;28;20221;-84
2021/04/30 12:31:03;;;;;;;8.13;6.60;;;;;;;;;;5007437;28;20186;-83
2021/04/30 12:34:11;;;;;;;7.03;5.93;;;;;;;;;;4983243;28;20190;-84
2021/04/30 12:37:16;;;;;;;7.67;6.83;;;;;;;;;;4995631;28;20636;-84
2021/04/30 12:40:30;;;;;;;6.87;6.17;;;;;;;;;;4992676;28;20182;-84
2021/04/30 12:43:37;;;;;;;6.47;5.70;;;;;;;;;;5005331;28;20649;-84
2021/04/30 12:46:42;;;;;;;6.63;6.03;;;;;;;;;;5018176;28;20212;-84
2021/04/30 12:49:46;;;;;;;6.67;6.03;;;;;;;;;;4984875;28;20185;-84
2021/04/30 12:52:51;;;;;;;11.27;6.67;;;;;;;;;;5011954;28;20189;-84
2021/04/30 12:55:56;;;;;;;7.07;6.30;;;;;;;;;;5016981;28;20590;-84
2021/04/30 12:59:06;;;;;;;7.87;6.50;;;;;;;;;;4986635;28;20656;-84
2021/04/30 13:02:14;;;;;;;8.17;6.40;;;;;;;;;;4990525;28;20182;-86
2021/04/30 13:05:21;;;;;;;5.40;4.37;;;;;;;;;;5002188;28;20579;-83
2021/04/30 13:08:26;;;;;;;7.47;5.13;;;;;;;;;;4994874;28;20210;-83
2021/04/30 13:11:30;;;;;;;7.20;5.40;;;;;;;;;;5001407;28;20194;-84
2021/04/30 13:14:46;;;;;;;5.57;4.37;;;;;;;;;;5032361;28;20191;-84
2021/04/30 13:17:57;;;;;;;4.70;4.30;;;;;;;;;;5002442;28;20642;-84
2021/04/30 13:21:05;;;;;;;6.00;4.27;;;;;;;;;;5002632;28;20190;-83
2021/04/30 13:24:19;;;;;;;8.80;5.93;;;;;;;;;;5013533;28;20185;-83
2021/04/30 13:27:25;;;;;;;8.23;4.97;;;;;;;;;;5035835;28;20564;-83
2021/04/30 13:30:40;;;;;;;6.20;5.13;;;;;;;;;;5025378;28;20639;-83
2021/04/30 13:33:44;;;;;;;6.33;5.40;;;;;;;;;;5013687;28;20182;-84
2021/04/30 13:36:52;;;;;;;7.17;3.67;;;;;;;;;;5013229;28;20201;-83
2021/04/30 13:40:03;;;;;;;7.20;4.37;;;;;;;;;;5005053;28;20189;-84
2021/04/30 13:43:08;;;;;;;10.30;4.73;;;;;;;;;;5020165;28;20189;-83
2021/04/30 13:46:14;;;;;;;7.50;5.50;;;;;;;;;;5005161;28;20226;-83
2021/04/30 13:49:19;;;;;;;7.60;4.97;;;;;;;;;;5005097;28;20178;-83
2021/04/30 13:52:25;;;;;;;6.50;4.70;;;;;;;;;;5005205;28;20177;-83
2021/04/30 13:55:30;;;;;;;6.67;5.87;;;;;;;;;;4993470;28;20557;-84
2021/04/30 13:58:34;;;;;;;4.80;4.40;;;;;;;;;;5016582;28;20174;-84
2021/04/30 14:01:39;;;;;;;8.53;4.57;;;;;;;;;;5016048;28;20194;-84
2021/04/30 14:04:43;;;;;;;4.70;4.30;;;;;;;;;;5015933;28;20695;-84
2021/04/30 14:07:52;;;;;;;7.33;6.07;;;;;;;;;;5004233;28;20214;-83
2021/04/30 14:10:55;;;;;;;6.23;4.40;;;;;;;;;;5023395;28;20193;-82
2021/04/30 14:13:59;;;;;;;8.33;6.07;;;;;;;;;;4993438;28;20181;-83
2021/04/30 14:17:05;;;;;;;5.80;4.37;;;;;;;;;;5015326;28;20529;-81
2021/04/30 14:20:12;;;;;;;6.03;5.43;;;;;;;;;;4992667;28;20667;-81
2021/04/30 14:23:17;;;;;;;7.17;5.00;;;;;;;;;;4993174;28;20197;-82
2021/04/30 14:26:21;;;;;;;7.50;5.63;;;;;;;;;;4982027;28;20221;-83
2021/04/30 14:29:25;;;;;;;6.03;4.80;;;;;;;;;;4982062;28;20696;-82
2021/04/30 14:32:29;;;;;;;7.70;4.87;;;;;;;;;;5015409;28;20189;-83
2021/04/30 14:35:33;;;;;;;5.73;4.60;;;;;;;;;;4993260;28;20224;-82
2021/04/30 14:38:37;;;;;;;8.83;5.40;;;;;;;;;;5012570;28;20181;-83
2021/04/30 14:41:42;;;;;;;14.00;6.40;;;;;;;;;;5011061;28;20196;-84
2021/04/30 14:44:46;;;;;;;8.47;6.93;;;;;;;;;;5015973;28;20217;-83
2021/04/30 14:47:50;;;;;;;8.80;7.60;;;;;;;;;;5003987;28;20209;-82
2021/04/30 14:50:54;;;;;;;8.73;7.13;;;;;;;;;;4986293;28;20193;-83
2021/04/30 14:53:59;;;;;;;10.97;5.73;;;;;;;;;;5004197;28;20521;-82
2021/04/30 14:57:03;;;;;;;8.37;6.07;;;;;;;;;;5004053;28;20185;-82
2021/04/30 15:00:08;;;;;;;7.50;6.80;;;;;;;;;;5004446;28;20174;-83
2021/04/30 15:03:13;;;;;;;8.87;6.80;;;;;;;;;;5003766;28;20177;-84
2021/04/30 15:06:17;;;;;;;7.33;5.93;;;;;;;;;;5021085;28;20220;-83
2021/04/30 15:09:21;;;;;;;11.27;7.00;;;;;;;;;;5012076;28;20209;-84
2021/04/30 15:12:25;;;;;;;10.43;6.20;;;;;;;;;;5035505;28;20177;-85
2021/04/30 15:15:30;;;;;;;17.23;7.00;;;;;;;;;;5034683;28;20216;-85
2021/04/30 15:18:34;;;;;;;7.63;5.23;;;;;;;;;;5011676;28;20185;-85
2021/04/30 15:21:39;;;;;;;10.33;5.70;;;;;;;;;;5014660;28;20181;-83
2021/04/30 15:24:44;;;;;;;35.07;7.63;;;;;;;;;;5015367;28;20221;-83
2021/04/30 15:27:49;;;;;;;9.00;5.73;;;;;;;;;;4992576;28;20205;-82
2021/04/30 15:30:54;;;;;;;13.77;6.10;;;;;;;;;;4981293;28;20182;-82
2021/04/30 15:33:59;;;;;;;6.97;6.00;;;;;;;;;;4980996;28;20545;-82
2021/04/30 15:37:03;;;;;;;7.13;5.83;;;;;;;;;;5009831;23;20229;-84
2021/04/30 15:40:09;;;;;;;12.73;6.23;;;;;;;;;;4989374;28;20177;-84
2021/04/30 15:43:13;;;;;;;10.77;5.03;;;;;;;;;;5001629;28;20667;-85
2021/04/30 15:46:17;;;;;;;13.03;5.90;;;;;;;;;;4983455;28;20226;-85
2021/04/30 15:49:21;;;;;;;11.27;5.60;;;;;;;;;;4979060;28;20701;-87
2021/04/30 15:52:26;;;;;;;8.97;6.20;;;;;;;;;;4970427;28;20198;-88
2021/04/30 15:55:30;;;;;;;9.63;6.60;;;;;;;;;;4986047;28;20222;-87
2021/04/30 15:58:34;;;;;;;11.60;6.57;;;;;;;;;;4967312;28;20187;-86
2021/04/30 16:01:38;;;;;;;13.43;6.10;;;;;;;;;;4961751;28;20210;-86
2021/04/30 16:04:43;;;;;;;12.20;6.60;;;;;;;;;;4990773;28;20748;-86
2021/04/30 16:07:47;;;;;;;8.73;6.33;;;;;;;;;;4979251;28;20193;-86
2021/04/30 16:10:54;;;;;;;12.53;6.00;;;;;;;;;;4983130;28;20191;-81
2021/04/30 16:13:59;;;;;;;12.47;7.10;;;;;;;;;;4987843;28;20507;-82
2021/04/30 16:17:03;;;;;;;9.13;5.97;;;;;;;;;;4979530;28;20723;-85
2021/04/30 16:20:08;;;;;;;8.70;6.60;;;;;;;;;;4981044;28;20190;-84
2021/04/30 16:23:12;;;;;;;10.83;6.90;;;;;;;;;;4967161;28;20178;-85
2021/04/30 16:26:18;;;;;;;12.63;7.77;;;;;;;;;;4977718;28;20225;-82
2021/04/30 16:29:22;;;;;;;13.83;7.07;;;;;;;;;;4958324;28;20218;-82
2021/04/30 16:32:26;;;;;;;8.70;7.60;;;;;;;;;;4987607;28;20190;-82
2021/04/30 16:35:30;;;;;;;10.60;8.17;;;;;;;;;;4962726;28;20218;-82
2021/04/30 16:38:35;;;;;;;13.43;10.60;;;;;;;;;;4988857;28;20193;-81
2021/04/30 16:41:40;;;;;;;13.77;9.53;;;;;;;;;;4979576;28;20204;-82
2021/04/30 16:44:44;;;;;;;13.03;10.00;;;;;;;;;;4972820;28;20191;-83
2021/04/30 16:47:49;;;;;;;12.63;9.20;;;;;;;;;;4949907;28;20210;-82
2021/04/30 16:50:53;;;;;;;15.17;11.03;;;;;;;;;;4973269;28;20552;-86
2021/04/30 16:54:02;;;;;;;11.43;9.40;;;;;;;;;;4963785;28;20209;-82
2021/04/30 16:57:07;;;;;;;11.43;8.77;;;;;;;;;;4954081;28;20226;-82
2021/04/30 17:00:12;;;;;;;11.37;8.87;;;;;;;;;;4970080;28;20186;-83
2021/04/30 17:03:18;;;;;;;13.07;9.13;;;;;;;;;;4974953;28;20178;-83
2021/04/30 17:06:23;;;;;;;10.87;8.97;;;;;;;;;;4975212;28;20217;-82
2021/04/30 17:09:27;;;;;;;10.60;8.90;;;;;;;;;;4988860;28;20546;-82
2021/04/30 17:12:32;;;;;;;13.43;8.87;;;;;;;;;;4958122;28;20179;-82
2021/04/30 17:15:36;;;;;;;11.37;8.17;;;;;;;;;;4945991;28;20222;-83
2021/04/30 17:18:43;;;;;;;12.03;8.87;;;;;;;;;;4979208;28;20633;-82
2021/04/30 17:21:55;;;;;;;9.40;8.27;;;;;;;;;;4990448;28;20641;-82
2021/04/30 17:25:08;;;;;;;10.67;9.20;;;;;;;;;;4977100;28;20518;-83
2021/04/30 17:28:13;;;;;;;11.30;8.50;;;;;;;;;;4996900;28;20629;-82
2021/04/30 17:31:17;;;;;;;12.70;9.03;;;;;;;;;;4974235;28;20194;-83
2021/04/30 17:34:21;;;;;;;12.70;10.03;;;;;;;;;;4979916;28;20191;-82
2021/04/30 17:37:26;;;;;;;15.37;9.53;;;;;;;;;;4986182;28;20206;-84
2021/04/30 17:40:31;;;;;;;13.13;10.23;;;;;;;;;;4982871;28;20538;-83
2021/04/30 17:43:35;;;;;;;11.47;9.60;;;;;;;;;;4984481;28;20179;-82
2021/04/30 17:46:40;;;;;;;10.80;8.40;;;;;;;;;;4977504;28;20566;-84
2021/04/30 17:49:44;;;;;;;12.20;9.50;;;;;;;;;;4974446;28;20222;-83
2021/04/30 17:52:49;;;;;;;12.70;8.93;;;;;;;;;;4970005;28;20194;-82
2021/04/30 17:55:54;;;;;;;11.83;9.43;;;;;;;;;;4990756;28;20218;-83
2021/04/30 17:59:00;;;;;;;13.13;9.73;;;;;;;;;;4979450;28;20190;-83
2021/04/30 18:02:04;;;;;;;12.00;9.63;;;;;;;;;;4991654;28;20198;-83
2021/04/30 18:05:09;;;;;;;11.60;9.57;;;;;;;;;;4978283;28;20669;-82
2021/04/30 18:08:13;;;;;;;14.40;12.03;;;;;;;;;;4986240;28;20198;-82
2021/04/30 18:11:18;;;;;;;13.30;10.20;;;;;;;;;;4972119;28;20190;-81
2021/04/30 18:14:22;;;;;;;15.33;11.57;;;;;;;;;;4986101;28;20665;-80
2021/04/30 18:17:26;;;;;;;14.83;10.93;;;;;;;;;;4985661;28;20549;-81
2021/04/30 18:20:32;;;;;;;16.60;10.67;;;;;;;;;;4974989;28;20532;-82